sensor_id;sensor_type;location;lat;lon;timestamp;P1;durP1;ratioP1;P2;durP2;ratioP2
8293;SDS011;4185;41.506;24.938;2023-09-07T00:00:40;9.50;;;7.63;;
8293;SDS011;4185;41.506;24.938;2023-09-07T00:03:07;10.77;;;8.43;;
8293;SDS011;4185;41.506;24.938;2023-09-07T00:05:34;11.37;;;8.33;;
8293;SDS011;4185;41.506;24.938;2023-09-07T00:08:01;10.87;;;8.53;;
8293;SDS011;4185;41.506;24.938;2023-09-07T00:10:29;9.10;;;7.97;;
8293;SDS011;4185;41.506;24.938;2023-09-07T00:12:56;9.17;;;7.93;;
8293;SDS011;4185;41.506;24.938;2023-09-07T00:15:23;10.67;;;8.73;;
8293;SDS011;4185;41.506;24.938;2023-09-07T00:17:51;11.77;;;8.10;;
8293;SDS011;4185;41.506;24.938;2023-09-07T00:20:18;9.33;;;8.13;;
8293;SDS011;4185;41.506;24.938;2023-09-07T00:22:46;9.40;;;8.40;;
8293;SDS011;4185;41.506;24.938;2023-09-07T00:25:13;10.17;;;9.07;;
8293;SDS011;4185;41.506;24.938;2023-09-07T00:27:41;9.30;;;8.10;;
8293;SDS011;4185;41.506;24.938;2023-09-07T00:30:09;9.93;;;8.13;;
8293;SDS011;4185;41.506;24.938;2023-09-07T00:32:36;12.80;;;8.57;;
8293;SDS011;4185;41.506;24.938;2023-09-07T00:35:04;10.93;;;8.03;;
8293;SDS011;4185;41.506;24.938;2023-09-07T00:37:32;9.40;;;8.40;;
8293;SDS011;4185;41.506;24.938;2023-09-07T00:39:59;10.90;;;8.23;;
8293;SDS011;4185;41.506;24.938;2023-09-07T00:42:25;10.93;;;8.23;;
8293;SDS011;4185;41.506;24.938;2023-09-07T00:44:54;11.47;;;8.07;;
8293;SDS011;4185;41.506;24.938;2023-09-07T00:47:21;10.70;;;8.00;;
8293;SDS011;4185;41.506;24.938;2023-09-07T00:49:48;12.30;;;8.80;;
8293;SDS011;4185;41.506;24.938;2023-09-07T00:52:16;9.27;;;7.53;;
8293;SDS011;4185;41.506;24.938;2023-09-07T00:54:44;12.83;;;8.37;;
8293;SDS011;4185;41.506;24.938;2023-09-07T00:57:11;9.83;;;8.23;;
8293;SDS011;4185;41.506;24.938;2023-09-07T00:59:38;12.53;;;8.10;;
8293;SDS011;4185;41.506;24.938;2023-09-07T01:02:06;9.93;;;8.23;;
8293;SDS011;4185;41.506;24.938;2023-09-07T01:04:33;11.27;;;8.30;;
8293;SDS011;4185;41.506;24.938;2023-09-07T01:07:02;10.60;;;8.23;;
8293;SDS011;4185;41.506;24.938;2023-09-07T01:09:33;12.73;;;8.67;;
8293;SDS011;4185;41.506;24.938;2023-09-07T01:12:03;10.00;;;8.17;;
8293;SDS011;4185;41.506;24.938;2023-09-07T01:14:35;10.50;;;8.00;;
8293;SDS011;4185;41.506;24.938;2023-09-07T01:17:02;10.17;;;8.47;;
8293;SDS011;4185;41.506;24.938;2023-09-07T01:19:31;10.23;;;8.50;;
8293;SDS011;4185;41.506;24.938;2023-09-07T01:22:00;10.30;;;8.33;;
8293;SDS011;4185;41.506;24.938;2023-09-07T01:24:27;11.77;;;8.50;;
8293;SDS011;4185;41.506;24.938;2023-09-07T01:26:55;9.43;;;8.43;;
8293;SDS011;4185;41.506;24.938;2023-09-07T01:29:23;9.33;;;8.37;;
8293;SDS011;4185;41.506;24.938;2023-09-07T01:31:50;11.20;;;8.80;;
8293;SDS011;4185;41.506;24.938;2023-09-07T01:34:16;11.10;;;8.37;;
8293;SDS011;4185;41.506;24.938;2023-09-07T01:36:43;11.90;;;7.80;;
8293;SDS011;4185;41.506;24.938;2023-09-07T01:39:11;8.53;;;7.50;;
8293;SDS011;4185;41.506;24.938;2023-09-07T01:41:38;10.13;;;8.03;;
8293;SDS011;4185;41.506;24.938;2023-09-07T01:44:05;10.80;;;8.10;;
8293;SDS011;4185;41.506;24.938;2023-09-07T01:46:32;12.20;;;8.80;;
8293;SDS011;4185;41.506;24.938;2023-09-07T01:48:58;10.53;;;8.90;;
8293;SDS011;4185;41.506;24.938;2023-09-07T01:51:24;10.87;;;8.00;;
8293;SDS011;4185;41.506;24.938;2023-09-07T01:53:53;11.23;;;7.30;;
8293;SDS011;4185;41.506;24.938;2023-09-07T01:56:21;12.07;;;8.80;;
8293;SDS011;4185;41.506;24.938;2023-09-07T01:58:49;11.60;;;8.40;;
8293;SDS011;4185;41.506;24.938;2023-09-07T02:01:20;9.03;;;8.10;;
8293;SDS011;4185;41.506;24.938;2023-09-07T02:03:48;10.40;;;8.00;;
8293;SDS011;4185;41.506;24.938;2023-09-07T02:06:14;13.23;;;8.03;;
8293;SDS011;4185;41.506;24.938;2023-09-07T02:08:41;9.63;;;8.50;;
8293;SDS011;4185;41.506;24.938;2023-09-07T02:11:08;9.47;;;8.33;;
8293;SDS011;4185;41.506;24.938;2023-09-07T02:13:36;10.77;;;8.33;;
8293;SDS011;4185;41.506;24.938;2023-09-07T02:16:03;13.43;;;8.20;;
8293;SDS011;4185;41.506;24.938;2023-09-07T02:18:31;8.30;;;7.40;;
8293;SDS011;4185;41.506;24.938;2023-09-07T02:21:01;9.77;;;7.67;;
8293;SDS011;4185;41.506;24.938;2023-09-07T02:23:28;11.40;;;7.43;;
8293;SDS011;4185;41.506;24.938;2023-09-07T02:25:55;10.17;;;7.90;;
8293;SDS011;4185;41.506;24.938;2023-09-07T02:28:23;10.03;;;7.87;;
8293;SDS011;4185;41.506;24.938;2023-09-07T02:30:51;10.13;;;8.17;;
8293;SDS011;4185;41.506;24.938;2023-09-07T02:33:18;10.50;;;8.30;;
8293;SDS011;4185;41.506;24.938;2023-09-07T02:35:47;10.70;;;8.10;;
8293;SDS011;4185;41.506;24.938;2023-09-07T02:38:14;9.37;;;7.90;;
8293;SDS011;4185;41.506;24.938;2023-09-07T02:40:41;10.80;;;8.87;;
8293;SDS011;4185;41.506;24.938;2023-09-07T02:43:09;10.80;;;7.53;;
8293;SDS011;4185;41.506;24.938;2023-09-07T02:45:36;8.90;;;7.53;;
8293;SDS011;4185;41.506;24.938;2023-09-07T02:48:05;10.07;;;7.77;;
8293;SDS011;4185;41.506;24.938;2023-09-07T02:53:29;10.13;;;8.00;;
8293;SDS011;4185;41.506;24.938;2023-09-07T02:55:56;10.47;;;8.40;;
8293;SDS011;4185;41.506;24.938;2023-09-07T02:58:22;10.87;;;8.03;;
8293;SDS011;4185;41.506;24.938;2023-09-07T03:00:49;11.10;;;8.97;;
8293;SDS011;4185;41.506;24.938;2023-09-07T03:03:18;11.20;;;8.43;;
8293;SDS011;4185;41.506;24.938;2023-09-07T03:05:45;10.70;;;8.97;;
8293;SDS011;4185;41.506;24.938;2023-09-07T03:08:11;13.10;;;8.47;;
8293;SDS011;4185;41.506;24.938;2023-09-07T03:10:38;11.87;;;8.73;;
8293;SDS011;4185;41.506;24.938;2023-09-07T03:13:06;9.90;;;7.80;;
8293;SDS011;4185;41.506;24.938;2023-09-07T03:15:32;11.37;;;8.57;;
8293;SDS011;4185;41.506;24.938;2023-09-07T03:18:00;11.23;;;8.53;;
8293;SDS011;4185;41.506;24.938;2023-09-07T03:20:28;11.33;;;8.50;;
8293;SDS011;4185;41.506;24.938;2023-09-07T03:22:55;9.50;;;8.23;;
8293;SDS011;4185;41.506;24.938;2023-09-07T03:25:22;12.67;;;8.00;;
8293;SDS011;4185;41.506;24.938;2023-09-07T03:27:49;12.33;;;8.53;;
8293;SDS011;4185;41.506;24.938;2023-09-07T03:30:16;9.03;;;7.93;;
8293;SDS011;4185;41.506;24.938;2023-09-07T03:32:43;11.30;;;8.77;;
8293;SDS011;4185;41.506;24.938;2023-09-07T03:35:11;11.40;;;9.03;;
8293;SDS011;4185;41.506;24.938;2023-09-07T03:37:41;13.10;;;8.77;;
8293;SDS011;4185;41.506;24.938;2023-09-07T03:40:08;10.80;;;9.17;;
8293;SDS011;4185;41.506;24.938;2023-09-07T03:42:36;10.37;;;8.33;;
8293;SDS011;4185;41.506;24.938;2023-09-07T03:45:03;12.40;;;8.70;;
8293;SDS011;4185;41.506;24.938;2023-09-07T03:47:30;12.07;;;9.10;;
8293;SDS011;4185;41.506;24.938;2023-09-07T03:49:57;11.60;;;8.77;;
8293;SDS011;4185;41.506;24.938;2023-09-07T03:52:24;12.63;;;8.53;;
8293;SDS011;4185;41.506;24.938;2023-09-07T03:54:53;12.97;;;9.23;;
8293;SDS011;4185;41.506;24.938;2023-09-07T03:57:21;10.03;;;8.43;;
8293;SDS011;4185;41.506;24.938;2023-09-07T03:59:48;11.90;;;9.33;;
8293;SDS011;4185;41.506;24.938;2023-09-07T04:02:15;11.07;;;8.90;;
8293;SDS011;4185;41.506;24.938;2023-09-07T04:04:42;9.80;;;8.23;;
8293;SDS011;4185;41.506;24.938;2023-09-07T04:07:09;11.70;;;8.80;;
8293;SDS011;4185;41.506;24.938;2023-09-07T04:09:36;13.77;;;8.83;;
8293;SDS011;4185;41.506;24.938;2023-09-07T04:12:05;14.53;;;9.50;;
8293;SDS011;4185;41.506;24.938;2023-09-07T04:14:32;11.63;;;9.97;;
8293;SDS011;4185;41.506;24.938;2023-09-07T04:16:59;12.93;;;9.93;;
8293;SDS011;4185;41.506;24.938;2023-09-07T04:19:26;12.53;;;9.73;;
8293;SDS011;4185;41.506;24.938;2023-09-07T04:21:53;12.47;;;9.13;;
8293;SDS011;4185;41.506;24.938;2023-09-07T04:24:20;14.07;;;9.30;;
8293;SDS011;4185;41.506;24.938;2023-09-07T04:26:47;11.60;;;9.30;;
8293;SDS011;4185;41.506;24.938;2023-09-07T04:29:15;14.93;;;9.90;;
8293;SDS011;4185;41.506;24.938;2023-09-07T04:31:42;12.83;;;10.27;;
8293;SDS011;4185;41.506;24.938;2023-09-07T04:34:09;11.47;;;9.63;;
8293;SDS011;4185;41.506;24.938;2023-09-07T04:36:36;11.87;;;9.87;;
8293;SDS011;4185;41.506;24.938;2023-09-07T04:39:02;12.43;;;9.87;;
8293;SDS011;4185;41.506;24.938;2023-09-07T04:41:29;16.83;;;11.77;;
8293;SDS011;4185;41.506;24.938;2023-09-07T04:43:56;15.57;;;10.63;;
8293;SDS011;4185;41.506;24.938;2023-09-07T04:46:25;13.50;;;11.07;;
8293;SDS011;4185;41.506;24.938;2023-09-07T04:48:51;14.90;;;11.73;;
8293;SDS011;4185;41.506;24.938;2023-09-07T04:51:18;15.37;;;11.00;;
8293;SDS011;4185;41.506;24.938;2023-09-07T04:53:47;12.73;;;10.63;;
8293;SDS011;4185;41.506;24.938;2023-09-07T04:56:13;17.37;;;11.67;;
8293;SDS011;4185;41.506;24.938;2023-09-07T04:58:41;14.50;;;10.60;;
8293;SDS011;4185;41.506;24.938;2023-09-07T05:01:08;13.90;;;11.20;;
8293;SDS011;4185;41.506;24.938;2023-09-07T05:03:39;14.60;;;11.13;;
8293;SDS011;4185;41.506;24.938;2023-09-07T05:06:06;15.00;;;11.47;;
8293;SDS011;4185;41.506;24.938;2023-09-07T05:08:33;13.00;;;10.70;;
8293;SDS011;4185;41.506;24.938;2023-09-07T05:11:01;13.53;;;11.43;;
8293;SDS011;4185;41.506;24.938;2023-09-07T05:13:29;15.50;;;10.13;;
8293;SDS011;4185;41.506;24.938;2023-09-07T05:15:58;14.43;;;10.50;;
8293;SDS011;4185;41.506;24.938;2023-09-07T05:18:26;15.07;;;12.13;;
8293;SDS011;4185;41.506;24.938;2023-09-07T05:20:54;13.83;;;10.97;;
8293;SDS011;4185;41.506;24.938;2023-09-07T05:23:21;15.60;;;11.50;;
8293;SDS011;4185;41.506;24.938;2023-09-07T05:25:50;17.27;;;11.90;;
8293;SDS011;4185;41.506;24.938;2023-09-07T05:28:19;15.07;;;11.47;;
8293;SDS011;4185;41.506;24.938;2023-09-07T05:30:46;16.87;;;11.37;;
8293;SDS011;4185;41.506;24.938;2023-09-07T05:33:14;17.50;;;11.43;;
8293;SDS011;4185;41.506;24.938;2023-09-07T05:35:42;15.73;;;11.33;;
8293;SDS011;4185;41.506;24.938;2023-09-07T05:38:12;17.47;;;12.10;;
8293;SDS011;4185;41.506;24.938;2023-09-07T05:40:40;15.53;;;11.70;;
8293;SDS011;4185;41.506;24.938;2023-09-07T05:43:09;14.90;;;10.67;;
8293;SDS011;4185;41.506;24.938;2023-09-07T05:45:36;14.33;;;11.17;;
8293;SDS011;4185;41.506;24.938;2023-09-07T05:48:05;16.30;;;11.60;;
8293;SDS011;4185;41.506;24.938;2023-09-07T05:50:33;20.00;;;15.00;;
8293;SDS011;4185;41.506;24.938;2023-09-07T05:53:03;15.93;;;12.00;;
8293;SDS011;4185;41.506;24.938;2023-09-07T05:55:32;15.50;;;11.73;;
8293;SDS011;4185;41.506;24.938;2023-09-07T05:57:59;14.73;;;11.77;;
8293;SDS011;4185;41.506;24.938;2023-09-07T06:00:26;15.67;;;11.80;;
8293;SDS011;4185;41.506;24.938;2023-09-07T06:02:53;13.67;;;11.40;;
8293;SDS011;4185;41.506;24.938;2023-09-07T06:05:20;14.73;;;11.60;;
8293;SDS011;4185;41.506;24.938;2023-09-07T06:07:47;13.80;;;11.23;;
8293;SDS011;4185;41.506;24.938;2023-09-07T06:10:14;13.17;;;10.80;;
8293;SDS011;4185;41.506;24.938;2023-09-07T06:12:44;13.77;;;10.70;;
8293;SDS011;4185;41.506;24.938;2023-09-07T06:15:10;24.93;;;16.00;;
8293;SDS011;4185;41.506;24.938;2023-09-07T06:17:37;15.33;;;12.23;;
8293;SDS011;4185;41.506;24.938;2023-09-07T06:20:05;15.37;;;12.17;;
8293;SDS011;4185;41.506;24.938;2023-09-07T06:22:32;15.33;;;11.70;;
8293;SDS011;4185;41.506;24.938;2023-09-07T06:24:59;16.00;;;12.63;;
8293;SDS011;4185;41.506;24.938;2023-09-07T06:27:26;17.93;;;11.37;;
8293;SDS011;4185;41.506;24.938;2023-09-07T06:29:54;16.93;;;12.37;;
8293;SDS011;4185;41.506;24.938;2023-09-07T06:32:21;18.03;;;12.10;;
8293;SDS011;4185;41.506;24.938;2023-09-07T06:34:47;15.23;;;11.37;;
8293;SDS011;4185;41.506;24.938;2023-09-07T06:37:14;15.00;;;10.67;;
8293;SDS011;4185;41.506;24.938;2023-09-07T06:39:41;14.23;;;10.07;;
8293;SDS011;4185;41.506;24.938;2023-09-07T06:42:08;18.23;;;11.50;;
8293;SDS011;4185;41.506;24.938;2023-09-07T06:44:36;15.03;;;11.23;;
8293;SDS011;4185;41.506;24.938;2023-09-07T06:47:04;13.83;;;11.27;;
8293;SDS011;4185;41.506;24.938;2023-09-07T06:49:31;13.37;;;10.73;;
8293;SDS011;4185;41.506;24.938;2023-09-07T06:51:57;10.53;;;9.17;;
8293;SDS011;4185;41.506;24.938;2023-09-07T06:54:24;11.13;;;8.93;;
8293;SDS011;4185;41.506;24.938;2023-09-07T06:56:51;11.00;;;9.90;;
8293;SDS011;4185;41.506;24.938;2023-09-07T06:59:18;11.20;;;8.60;;
8293;SDS011;4185;41.506;24.938;2023-09-07T07:01:45;11.47;;;9.23;;
8293;SDS011;4185;41.506;24.938;2023-09-07T07:04:13;12.77;;;9.47;;
8293;SDS011;4185;41.506;24.938;2023-09-07T07:06:40;9.47;;;8.17;;
8293;SDS011;4185;41.506;24.938;2023-09-07T07:09:07;11.73;;;7.57;;
8293;SDS011;4185;41.506;24.938;2023-09-07T07:11:34;9.20;;;7.50;;
8293;SDS011;4185;41.506;24.938;2023-09-07T07:14:01;11.57;;;9.07;;
8293;SDS011;4185;41.506;24.938;2023-09-07T07:16:27;11.17;;;8.67;;
8293;SDS011;4185;41.506;24.938;2023-09-07T07:18:54;10.93;;;8.47;;
8293;SDS011;4185;41.506;24.938;2023-09-07T07:21:22;11.73;;;9.17;;
8293;SDS011;4185;41.506;24.938;2023-09-07T07:23:49;9.77;;;8.67;;
8293;SDS011;4185;41.506;24.938;2023-09-07T07:26:16;10.67;;;8.03;;
8293;SDS011;4185;41.506;24.938;2023-09-07T07:28:43;10.47;;;8.30;;
8293;SDS011;4185;41.506;24.938;2023-09-07T07:31:10;12.23;;;7.93;;
8293;SDS011;4185;41.506;24.938;2023-09-07T07:33:37;12.57;;;8.23;;
8293;SDS011;4185;41.506;24.938;2023-09-07T07:36:04;13.60;;;8.33;;
8293;SDS011;4185;41.506;24.938;2023-09-07T07:38:32;11.23;;;7.77;;
8293;SDS011;4185;41.506;24.938;2023-09-07T07:41:00;9.90;;;8.07;;
8293;SDS011;4185;41.506;24.938;2023-09-07T07:43:27;9.97;;;7.73;;
8293;SDS011;4185;41.506;24.938;2023-09-07T07:45:54;8.63;;;7.43;;
8293;SDS011;4185;41.506;24.938;2023-09-07T07:48:21;9.90;;;6.73;;
8293;SDS011;4185;41.506;24.938;2023-09-07T07:50:47;8.17;;;7.00;;
8293;SDS011;4185;41.506;24.938;2023-09-07T07:53:14;9.17;;;7.33;;
8293;SDS011;4185;41.506;24.938;2023-09-07T07:55:42;15.40;;;7.80;;
8293;SDS011;4185;41.506;24.938;2023-09-07T07:58:09;9.77;;;7.83;;
8293;SDS011;4185;41.506;24.938;2023-09-07T08:00:36;11.57;;;7.87;;
8293;SDS011;4185;41.506;24.938;2023-09-07T08:03:04;8.40;;;7.50;;
8293;SDS011;4185;41.506;24.938;2023-09-07T08:05:32;12.47;;;8.07;;
8293;SDS011;4185;41.506;24.938;2023-09-07T08:07:59;9.60;;;7.57;;
8293;SDS011;4185;41.506;24.938;2023-09-07T08:10:26;11.33;;;7.60;;
8293;SDS011;4185;41.506;24.938;2023-09-07T08:12:55;10.13;;;7.87;;
8293;SDS011;4185;41.506;24.938;2023-09-07T08:15:22;10.47;;;8.03;;
8293;SDS011;4185;41.506;24.938;2023-09-07T08:17:50;9.40;;;7.43;;
8293;SDS011;4185;41.506;24.938;2023-09-07T08:20:17;9.10;;;7.77;;
8293;SDS011;4185;41.506;24.938;2023-09-07T08:22:44;11.03;;;8.20;;
8293;SDS011;4185;41.506;24.938;2023-09-07T08:25:11;9.40;;;8.40;;
8293;SDS011;4185;41.506;24.938;2023-09-07T08:27:38;9.43;;;8.43;;
8293;SDS011;4185;41.506;24.938;2023-09-07T08:30:10;9.03;;;7.73;;
8293;SDS011;4185;41.506;24.938;2023-09-07T08:32:38;10.40;;;7.70;;
8293;SDS011;4185;41.506;24.938;2023-09-07T08:35:05;8.73;;;7.73;;
8293;SDS011;4185;41.506;24.938;2023-09-07T08:37:34;10.43;;;7.37;;
8293;SDS011;4185;41.506;24.938;2023-09-07T08:40:01;8.70;;;7.60;;
8293;SDS011;4185;41.506;24.938;2023-09-07T08:42:30;8.47;;;7.27;;
8293;SDS011;4185;41.506;24.938;2023-09-07T08:44:57;8.87;;;7.13;;
8293;SDS011;4185;41.506;24.938;2023-09-07T08:47:33;10.50;;;7.97;;
8293;SDS011;4185;41.506;24.938;2023-09-07T08:50:01;10.40;;;7.63;;
8293;SDS011;4185;41.506;24.938;2023-09-07T08:52:28;9.50;;;7.80;;
8293;SDS011;4185;41.506;24.938;2023-09-07T08:54:55;10.87;;;8.03;;
8293;SDS011;4185;41.506;24.938;2023-09-07T08:57:26;11.60;;;8.43;;
8293;SDS011;4185;41.506;24.938;2023-09-07T08:59:53;7.87;;;6.90;;
8293;SDS011;4185;41.506;24.938;2023-09-07T09:02:20;9.70;;;6.63;;
8293;SDS011;4185;41.506;24.938;2023-09-07T09:04:48;10.23;;;6.70;;
8293;SDS011;4185;41.506;24.938;2023-09-07T09:07:15;7.63;;;6.87;;
8293;SDS011;4185;41.506;24.938;2023-09-07T09:09:42;8.47;;;7.37;;
8293;SDS011;4185;41.506;24.938;2023-09-07T09:12:10;8.43;;;7.00;;
8293;SDS011;4185;41.506;24.938;2023-09-07T09:14:38;8.33;;;7.30;;
8293;SDS011;4185;41.506;24.938;2023-09-07T09:17:10;9.60;;;7.20;;
8293;SDS011;4185;41.506;24.938;2023-09-07T09:19:38;10.43;;;8.23;;
8293;SDS011;4185;41.506;24.938;2023-09-07T09:22:07;9.27;;;7.63;;
8293;SDS011;4185;41.506;24.938;2023-09-07T09:24:35;40.57;;;14.47;;
8293;SDS011;4185;41.506;24.938;2023-09-07T09:27:02;11.80;;;7.63;;
8293;SDS011;4185;41.506;24.938;2023-09-07T09:29:29;12.40;;;7.30;;
8293;SDS011;4185;41.506;24.938;2023-09-07T09:31:59;10.40;;;7.40;;
8293;SDS011;4185;41.506;24.938;2023-09-07T09:34:30;8.23;;;6.93;;
8293;SDS011;4185;41.506;24.938;2023-09-07T09:36:58;10.63;;;6.13;;
8293;SDS011;4185;41.506;24.938;2023-09-07T09:39:27;7.83;;;6.40;;
8293;SDS011;4185;41.506;24.938;2023-09-07T09:41:53;10.00;;;6.97;;
8293;SDS011;4185;41.506;24.938;2023-09-07T09:44:21;7.43;;;6.63;;
8293;SDS011;4185;41.506;24.938;2023-09-07T09:46:51;10.07;;;6.70;;
8293;SDS011;4185;41.506;24.938;2023-09-07T09:49:20;7.07;;;6.23;;
8293;SDS011;4185;41.506;24.938;2023-09-07T09:51:48;9.00;;;6.53;;
8293;SDS011;4185;41.506;24.938;2023-09-07T09:54:16;7.30;;;6.60;;
8293;SDS011;4185;41.506;24.938;2023-09-07T09:56:45;8.80;;;6.33;;
8293;SDS011;4185;41.506;24.938;2023-09-07T09:59:13;7.07;;;6.03;;
8293;SDS011;4185;41.506;24.938;2023-09-07T10:01:41;8.03;;;6.43;;
8293;SDS011;4185;41.506;24.938;2023-09-07T10:04:11;8.70;;;6.10;;
8293;SDS011;4185;41.506;24.938;2023-09-07T10:06:49;7.33;;;6.10;;
8293;SDS011;4185;41.506;24.938;2023-09-07T10:09:17;8.30;;;6.57;;
8293;SDS011;4185;41.506;24.938;2023-09-07T10:11:50;7.50;;;6.23;;
8293;SDS011;4185;41.506;24.938;2023-09-07T10:14:18;8.13;;;6.60;;
8293;SDS011;4185;41.506;24.938;2023-09-07T10:16:49;8.93;;;6.23;;
8293;SDS011;4185;41.506;24.938;2023-09-07T10:19:35;7.40;;;6.10;;
8293;SDS011;4185;41.506;24.938;2023-09-07T10:22:20;8.37;;;6.80;;
8293;SDS011;4185;41.506;24.938;2023-09-07T10:24:58;11.43;;;7.23;;
8293;SDS011;4185;41.506;24.938;2023-09-07T10:27:44;8.60;;;7.37;;
8293;SDS011;4185;41.506;24.938;2023-09-07T10:30:12;8.87;;;6.97;;
8293;SDS011;4185;41.506;24.938;2023-09-07T10:32:44;10.80;;;7.20;;
8293;SDS011;4185;41.506;24.938;2023-09-07T10:35:14;10.57;;;7.93;;
8293;SDS011;4185;41.506;24.938;2023-09-07T10:37:43;8.33;;;7.03;;
8293;SDS011;4185;41.506;24.938;2023-09-07T10:40:12;7.77;;;6.97;;
8293;SDS011;4185;41.506;24.938;2023-09-07T10:42:41;8.40;;;7.20;;
8293;SDS011;4185;41.506;24.938;2023-09-07T10:45:10;8.60;;;6.63;;
8293;SDS011;4185;41.506;24.938;2023-09-07T10:47:40;7.77;;;6.87;;
8293;SDS011;4185;41.506;24.938;2023-09-07T10:50:08;7.23;;;6.57;;
8293;SDS011;4185;41.506;24.938;2023-09-07T10:52:36;7.87;;;6.97;;
8293;SDS011;4185;41.506;24.938;2023-09-07T10:55:03;8.27;;;7.23;;
8293;SDS011;4185;41.506;24.938;2023-09-07T10:57:31;8.17;;;7.37;;
8293;SDS011;4185;41.506;24.938;2023-09-07T10:59:58;8.80;;;7.30;;
8293;SDS011;4185;41.506;24.938;2023-09-07T11:02:26;8.07;;;7.27;;
8293;SDS011;4185;41.506;24.938;2023-09-07T11:04:52;9.13;;;7.30;;
8293;SDS011;4185;41.506;24.938;2023-09-07T11:07:19;8.60;;;6.97;;
8293;SDS011;4185;41.506;24.938;2023-09-07T11:09:47;8.60;;;7.20;;
8293;SDS011;4185;41.506;24.938;2023-09-07T11:12:19;7.67;;;6.97;;
8293;SDS011;4185;41.506;24.938;2023-09-07T11:14:47;9.00;;;7.43;;
8293;SDS011;4185;41.506;24.938;2023-09-07T11:17:14;8.40;;;7.50;;
8293;SDS011;4185;41.506;24.938;2023-09-07T11:19:44;8.10;;;7.23;;
8293;SDS011;4185;41.506;24.938;2023-09-07T11:22:11;8.27;;;7.40;;
8293;SDS011;4185;41.506;24.938;2023-09-07T11:24:39;9.97;;;8.10;;
8293;SDS011;4185;41.506;24.938;2023-09-07T11:27:08;8.60;;;7.70;;
8293;SDS011;4185;41.506;24.938;2023-09-07T11:29:35;9.70;;;7.67;;
8293;SDS011;4185;41.506;24.938;2023-09-07T11:32:05;8.23;;;7.10;;
8293;SDS011;4185;41.506;24.938;2023-09-07T11:34:33;8.13;;;7.43;;
8293;SDS011;4185;41.506;24.938;2023-09-07T11:37:03;9.80;;;7.60;;
8293;SDS011;4185;41.506;24.938;2023-09-07T11:39:30;8.60;;;7.33;;
8293;SDS011;4185;41.506;24.938;2023-09-07T11:41:57;8.00;;;7.20;;
8293;SDS011;4185;41.506;24.938;2023-09-07T11:44:24;7.77;;;7.00;;
8293;SDS011;4185;41.506;24.938;2023-09-07T11:46:50;7.50;;;6.57;;
8293;SDS011;4185;41.506;24.938;2023-09-07T11:49:17;10.07;;;6.70;;
8293;SDS011;4185;41.506;24.938;2023-09-07T11:51:46;7.33;;;6.43;;
8293;SDS011;4185;41.506;24.938;2023-09-07T11:54:14;8.67;;;7.30;;
8293;SDS011;4185;41.506;24.938;2023-09-07T11:56:41;8.23;;;7.10;;
8293;SDS011;4185;41.506;24.938;2023-09-07T11:59:10;8.50;;;6.70;;
8293;SDS011;4185;41.506;24.938;2023-09-07T12:01:37;7.67;;;6.97;;
8293;SDS011;4185;41.506;24.938;2023-09-07T12:04:05;8.63;;;7.13;;
8293;SDS011;4185;41.506;24.938;2023-09-07T12:06:32;9.63;;;7.13;;
8293;SDS011;4185;41.506;24.938;2023-09-07T12:08:59;8.17;;;7.13;;
8293;SDS011;4185;41.506;24.938;2023-09-07T12:11:28;7.77;;;6.93;;
8293;SDS011;4185;41.506;24.938;2023-09-07T12:13:55;10.90;;;7.40;;
8293;SDS011;4185;41.506;24.938;2023-09-07T12:16:22;7.50;;;6.53;;
8293;SDS011;4185;41.506;24.938;2023-09-07T12:18:51;7.40;;;6.30;;
8293;SDS011;4185;41.506;24.938;2023-09-07T12:21:18;7.50;;;6.80;;
8293;SDS011;4185;41.506;24.938;2023-09-07T12:23:45;7.77;;;6.97;;
8293;SDS011;4185;41.506;24.938;2023-09-07T12:26:12;7.20;;;6.50;;
8293;SDS011;4185;41.506;24.938;2023-09-07T12:28:40;7.63;;;6.90;;
8293;SDS011;4185;41.506;24.938;2023-09-07T12:31:07;8.20;;;6.60;;
8293;SDS011;4185;41.506;24.938;2023-09-07T12:33:35;8.83;;;6.63;;
8293;SDS011;4185;41.506;24.938;2023-09-07T12:36:02;7.97;;;7.17;;
8293;SDS011;4185;41.506;24.938;2023-09-07T12:38:34;7.53;;;6.60;;
8293;SDS011;4185;41.506;24.938;2023-09-07T12:41:01;8.60;;;6.80;;
8293;SDS011;4185;41.506;24.938;2023-09-07T12:43:27;9.07;;;6.47;;
8293;SDS011;4185;41.506;24.938;2023-09-07T12:45:55;8.27;;;7.47;;
8293;SDS011;4185;41.506;24.938;2023-09-07T12:48:22;9.40;;;6.73;;
8293;SDS011;4185;41.506;24.938;2023-09-07T12:50:49;7.80;;;7.03;;
8293;SDS011;4185;41.506;24.938;2023-09-07T12:53:16;7.90;;;6.60;;
8293;SDS011;4185;41.506;24.938;2023-09-07T12:55:44;9.17;;;6.50;;
8293;SDS011;4185;41.506;24.938;2023-09-07T12:58:11;6.90;;;6.10;;
8293;SDS011;4185;41.506;24.938;2023-09-07T13:00:38;11.07;;;6.13;;
8293;SDS011;4185;41.506;24.938;2023-09-07T13:03:06;8.23;;;6.20;;
8293;SDS011;4185;41.506;24.938;2023-09-07T13:05:33;10.13;;;6.40;;
8293;SDS011;4185;41.506;24.938;2023-09-07T13:08:04;8.33;;;6.40;;
8293;SDS011;4185;41.506;24.938;2023-09-07T13:10:31;7.43;;;6.00;;
8293;SDS011;4185;41.506;24.938;2023-09-07T13:12:58;7.97;;;5.80;;
8293;SDS011;4185;41.506;24.938;2023-09-07T13:15:25;7.03;;;5.83;;
8293;SDS011;4185;41.506;24.938;2023-09-07T13:17:52;7.07;;;5.87;;
8293;SDS011;4185;41.506;24.938;2023-09-07T13:20:20;6.20;;;5.40;;
8293;SDS011;4185;41.506;24.938;2023-09-07T13:23:07;6.40;;;5.13;;
8293;SDS011;4185;41.506;24.938;2023-09-07T13:25:34;6.57;;;4.87;;
8293;SDS011;4185;41.506;24.938;2023-09-07T13:28:01;7.57;;;4.77;;
8293;SDS011;4185;41.506;24.938;2023-09-07T13:30:28;6.67;;;5.00;;
8293;SDS011;4185;41.506;24.938;2023-09-07T13:32:59;6.00;;;5.07;;
8293;SDS011;4185;41.506;24.938;2023-09-07T13:35:45;5.57;;;5.00;;
8293;SDS011;4185;41.506;24.938;2023-09-07T13:38:12;5.83;;;4.60;;
8293;SDS011;4185;41.506;24.938;2023-09-07T13:40:39;6.80;;;4.70;;
8293;SDS011;4185;41.506;24.938;2023-09-07T13:43:06;12.67;;;5.50;;
8293;SDS011;4185;41.506;24.938;2023-09-07T13:45:33;6.93;;;5.13;;
8293;SDS011;4185;41.506;24.938;2023-09-07T13:47:59;9.03;;;5.53;;
8293;SDS011;4185;41.506;24.938;2023-09-07T13:50:27;6.10;;;4.80;;
8293;SDS011;4185;41.506;24.938;2023-09-07T13:52:55;8.07;;;4.57;;
8293;SDS011;4185;41.506;24.938;2023-09-07T13:55:22;5.37;;;4.87;;
8293;SDS011;4185;41.506;24.938;2023-09-07T13:57:50;5.50;;;4.70;;
8293;SDS011;4185;41.506;24.938;2023-09-07T14:00:17;6.20;;;4.53;;
8293;SDS011;4185;41.506;24.938;2023-09-07T14:02:43;7.40;;;5.03;;
8293;SDS011;4185;41.506;24.938;2023-09-07T14:05:10;7.23;;;5.20;;
8293;SDS011;4185;41.506;24.938;2023-09-07T14:07:37;6.63;;;4.60;;
8293;SDS011;4185;41.506;24.938;2023-09-07T14:10:06;6.43;;;5.30;;
8293;SDS011;4185;41.506;24.938;2023-09-07T14:12:33;5.63;;;5.13;;
8293;SDS011;4185;41.506;24.938;2023-09-07T14:15:00;5.27;;;4.63;;
8293;SDS011;4185;41.506;24.938;2023-09-07T14:17:27;6.57;;;5.23;;
8293;SDS011;4185;41.506;24.938;2023-09-07T14:19:54;6.73;;;5.20;;
8293;SDS011;4185;41.506;24.938;2023-09-07T14:22:20;6.13;;;5.10;;
8293;SDS011;4185;41.506;24.938;2023-09-07T14:24:47;5.70;;;5.13;;
8293;SDS011;4185;41.506;24.938;2023-09-07T14:27:15;7.37;;;4.73;;
8293;SDS011;4185;41.506;24.938;2023-09-07T14:29:42;6.53;;;5.10;;
8293;SDS011;4185;41.506;24.938;2023-09-07T14:32:09;6.67;;;5.40;;
8293;SDS011;4185;41.506;24.938;2023-09-07T14:34:36;6.73;;;5.07;;
8293;SDS011;4185;41.506;24.938;2023-09-07T14:37:03;6.17;;;5.20;;
8293;SDS011;4185;41.506;24.938;2023-09-07T14:39:30;5.50;;;5.00;;
8293;SDS011;4185;41.506;24.938;2023-09-07T14:41:57;5.23;;;4.73;;
8293;SDS011;4185;41.506;24.938;2023-09-07T14:44:27;6.50;;;5.00;;
8293;SDS011;4185;41.506;24.938;2023-09-07T14:46:54;5.60;;;4.77;;
8293;SDS011;4185;41.506;24.938;2023-09-07T14:49:21;5.77;;;5.13;;
8293;SDS011;4185;41.506;24.938;2023-09-07T14:51:48;5.50;;;4.93;;
8293;SDS011;4185;41.506;24.938;2023-09-07T14:54:14;6.00;;;4.57;;
8293;SDS011;4185;41.506;24.938;2023-09-07T14:56:41;8.20;;;5.37;;
8293;SDS011;4185;41.506;24.938;2023-09-07T14:59:08;8.90;;;5.60;;